sensor_id;sensor_type;location;lat;lon;timestamp;pressure;altitude;pressure_sealevel;temperature;humidity
80502;BME280;70023;51.190;6.808;2023-08-20T00:03:58;101852.72;;;21.33;68.38
80502;BME280;70023;51.190;6.808;2023-08-20T00:08:59;101861.41;;;21.30;68.32
80502;BME280;70023;51.190;6.808;2023-08-20T00:14:00;101856.50;;;21.27;68.32
80502;BME280;70023;51.190;6.808;2023-08-20T00:24:29;101861.13;;;21.22;68.03
80502;BME280;70023;51.190;6.808;2023-08-20T00:29:30;101854.31;;;21.19;68.20
80502;BME280;70023;51.190;6.808;2023-08-20T00:34:31;101862.16;;;21.15;68.18
80502;BME280;70023;51.190;6.808;2023-08-20T00:39:32;101856.47;;;21.12;68.09
80502;BME280;70023;51.190;6.808;2023-08-20T00:44:34;101856.19;;;21.08;68.00
80502;BME280;70023;51.190;6.808;2023-08-20T00:49:35;101853.16;;;21.05;67.99
80502;BME280;70023;51.190;6.808;2023-08-20T00:54:37;101840.34;;;21.00;68.17
80502;BME280;70023;51.190;6.808;2023-08-20T00:59:40;101843.31;;;20.94;67.99
80502;BME280;70023;51.190;6.808;2023-08-20T01:04:43;101850.63;;;20.88;68.36
80502;BME280;70023;51.190;6.808;2023-08-20T01:10:08;101852.53;;;20.83;68.03
80502;BME280;70023;51.190;6.808;2023-08-20T01:15:16;101850.84;;;20.77;68.40
80502;BME280;70023;51.190;6.808;2023-08-20T01:20:17;101848.38;;;20.70;68.49
80502;BME280;70023;51.190;6.808;2023-08-20T01:31:02;101846.41;;;20.56;68.50
80502;BME280;70023;51.190;6.808;2023-08-20T01:36:07;101850.16;;;20.49;68.56
80502;BME280;70023;51.190;6.808;2023-08-20T01:41:11;101863.97;;;20.43;68.43
80502;BME280;70023;51.190;6.808;2023-08-20T01:46:12;101860.16;;;20.39;68.77
80502;BME280;70023;51.190;6.808;2023-08-20T01:51:13;101865.28;;;20.35;68.76
80502;BME280;70023;51.190;6.808;2023-08-20T01:56:15;101864.19;;;20.31;68.74
80502;BME280;70023;51.190;6.808;2023-08-20T02:01:16;101877.19;;;20.29;68.58
80502;BME280;70023;51.190;6.808;2023-08-20T02:06:17;101876.06;;;20.25;68.66
80502;BME280;70023;51.190;6.808;2023-08-20T02:11:18;101873.03;;;20.22;68.61
80502;BME280;70023;51.190;6.808;2023-08-20T02:16:19;101877.06;;;20.19;68.42
80502;BME280;70023;51.190;6.808;2023-08-20T02:21:20;101876.75;;;20.16;68.49
80502;BME280;70023;51.190;6.808;2023-08-20T02:26:21;101880.03;;;20.13;68.71
80502;BME280;70023;51.190;6.808;2023-08-20T02:31:22;101887.03;;;20.09;68.46
80502;BME280;70023;51.190;6.808;2023-08-20T02:36:23;101916.56;;;20.05;68.39
80502;BME280;70023;51.190;6.808;2023-08-20T02:41:25;101916.81;;;20.04;68.30
80502;BME280;70023;51.190;6.808;2023-08-20T02:46:26;101913.25;;;20.03;68.17
80502;BME280;70023;51.190;6.808;2023-08-20T02:51:27;101915.97;;;20.03;68.19
80502;BME280;70023;51.190;6.808;2023-08-20T02:56:28;101910.31;;;20.05;68.29
80502;BME280;70023;51.190;6.808;2023-08-20T03:01:30;101913.84;;;20.05;67.95
80502;BME280;70023;51.190;6.808;2023-08-20T03:06:31;101910.56;;;20.03;68.07
80502;BME280;70023;51.190;6.808;2023-08-20T03:11:32;101920.06;;;20.01;67.91
80502;BME280;70023;51.190;6.808;2023-08-20T03:16:33;101915.97;;;19.98;67.93
80502;BME280;70023;51.190;6.808;2023-08-20T03:21:34;101929.75;;;19.97;67.76
80502;BME280;70023;51.190;6.808;2023-08-20T03:26:35;101939.00;;;19.96;67.68
80502;BME280;70023;51.190;6.808;2023-08-20T03:31:39;101932.97;;;19.94;67.76
80502;BME280;70023;51.190;6.808;2023-08-20T03:36:40;101937.59;;;19.93;67.75
80502;BME280;70023;51.190;6.808;2023-08-20T03:41:42;101935.69;;;19.94;67.61
80502;BME280;70023;51.190;6.808;2023-08-20T03:46:43;101933.81;;;19.94;67.53
80502;BME280;70023;51.190;6.808;2023-08-20T03:51:44;101936.50;;;19.94;67.26
80502;BME280;70023;51.190;6.808;2023-08-20T03:56:45;101949.25;;;19.94;67.47
80502;BME280;70023;51.190;6.808;2023-08-20T04:01:46;101938.94;;;19.91;67.36
80502;BME280;70023;51.190;6.808;2023-08-20T04:06:47;101942.97;;;19.88;67.26
80502;BME280;70023;51.190;6.808;2023-08-20T04:11:48;101954.31;;;19.85;67.46
80502;BME280;70023;51.190;6.808;2023-08-20T04:16:50;101938.84;;;19.80;67.28
80502;BME280;70023;51.190;6.808;2023-08-20T04:21:51;101963.72;;;19.77;67.48
80502;BME280;70023;51.190;6.808;2023-08-20T04:26:52;101953.41;;;19.74;67.49
80502;BME280;70023;51.190;6.808;2023-08-20T04:31:53;101956.63;;;19.71;67.51
80502;BME280;70023;51.190;6.808;2023-08-20T04:36:54;101959.59;;;19.70;67.18
80502;BME280;70023;51.190;6.808;2023-08-20T04:41:55;101962.78;;;19.67;67.38
80502;BME280;70023;51.190;6.808;2023-08-20T04:46:57;101966.59;;;19.66;67.15
80502;BME280;70023;51.190;6.808;2023-08-20T04:52:00;101957.91;;;19.64;67.15
80502;BME280;70023;51.190;6.808;2023-08-20T04:57:01;101968.97;;;19.62;67.43
80502;BME280;70023;51.190;6.808;2023-08-20T05:02:02;101970.31;;;19.60;67.29
80502;BME280;70023;51.190;6.808;2023-08-20T05:07:03;101971.94;;;19.61;67.47
80502;BME280;70023;51.190;6.808;2023-08-20T05:12:05;101970.91;;;19.62;67.11
80502;BME280;70023;51.190;6.808;2023-08-20T05:17:07;101971.47;;;19.64;67.46
80502;BME280;70023;51.190;6.808;2023-08-20T05:22:08;101969.53;;;19.64;67.13
80502;BME280;70023;51.190;6.808;2023-08-20T05:27:13;101972.84;;;19.66;66.88
80502;BME280;70023;51.190;6.808;2023-08-20T05:32:17;101980.72;;;19.68;67.12
80502;BME280;70023;51.190;6.808;2023-08-20T05:37:18;101981.81;;;19.72;67.11
80502;BME280;70023;51.190;6.808;2023-08-20T05:42:19;101982.41;;;19.74;66.59
80502;BME280;70023;51.190;6.808;2023-08-20T05:47:20;101983.53;;;19.78;66.47
80502;BME280;70023;51.190;6.808;2023-08-20T05:52:21;101968.53;;;19.97;66.66
80502;BME280;70023;51.190;6.808;2023-08-20T05:57:22;101971.19;;;20.19;66.27
80502;BME280;70023;51.190;6.808;2023-08-20T06:02:23;101973.56;;;20.37;66.00
80502;BME280;70023;51.190;6.808;2023-08-20T06:07:24;101970.16;;;20.57;65.39
80502;BME280;70023;51.190;6.808;2023-08-20T06:12:25;101984.16;;;20.75;65.06
80502;BME280;70023;51.190;6.808;2023-08-20T06:17:26;101982.34;;;20.91;64.51
80502;BME280;70023;51.190;6.808;2023-08-20T06:22:28;101986.00;;;21.06;64.13
80502;BME280;70023;51.190;6.808;2023-08-20T06:27:34;101996.16;;;21.21;63.67
80502;BME280;70023;51.190;6.808;2023-08-20T06:32:46;101991.84;;;21.30;63.46
80502;BME280;70023;51.190;6.808;2023-08-20T06:38:11;101995.41;;;21.41;63.20
80502;BME280;70023;51.190;6.808;2023-08-20T06:43:18;101984.03;;;21.49;62.93
80502;BME280;70023;51.190;6.808;2023-08-20T06:48:25;101989.78;;;21.57;62.50
80502;BME280;70023;51.190;6.808;2023-08-20T06:53:45;102001.22;;;21.64;62.33
80502;BME280;70023;51.190;6.808;2023-08-20T07:16:30;102002.34;;;21.83;62.19
80502;BME280;70023;51.190;6.808;2023-08-20T07:21:54;101993.41;;;21.88;62.02
80502;BME280;70023;51.190;6.808;2023-08-20T07:27:40;101993.72;;;21.92;62.09
80502;BME280;70023;51.190;6.808;2023-08-20T07:44:35;102001.34;;;22.10;61.97
80502;BME280;70023;51.190;6.808;2023-08-20T07:49:37;102007.34;;;22.17;61.69
80502;BME280;70023;51.190;6.808;2023-08-20T07:54:49;101990.19;;;22.21;61.72
80502;BME280;70023;51.190;6.808;2023-08-20T08:06:31;102000.03;;;22.42;61.46
80502;BME280;70023;51.190;6.808;2023-08-20T08:11:32;101998.94;;;22.48;61.32
80502;BME280;70023;51.190;6.808;2023-08-20T08:16:42;102008.16;;;22.58;61.31
80502;BME280;70023;51.190;6.808;2023-08-20T08:28:27;102001.94;;;22.77;60.87
80502;BME280;70023;51.190;6.808;2023-08-20T08:40:38;102009.25;;;23.02;60.71
80502;BME280;70023;51.190;6.808;2023-08-20T09:03:23;101999.03;;;23.48;60.31
80502;BME280;70023;51.190;6.808;2023-08-20T09:14:36;102000.81;;;23.72;60.15
80502;BME280;70023;51.190;6.808;2023-08-20T09:32:16;102004.88;;;24.29;59.33
80502;BME280;70023;51.190;6.808;2023-08-20T09:37:48;102000.56;;;24.52;58.89
80502;BME280;70023;51.190;6.808;2023-08-20T09:59:48;102018.59;;;25.34;58.78
80502;BME280;70023;51.190;6.808;2023-08-20T10:05:08;102017.88;;;25.52;58.58
80502;BME280;70023;51.190;6.808;2023-08-20T10:10:53;102018.34;;;25.78;58.22
80502;BME280;70023;51.190;6.808;2023-08-20T10:22:05;102013.78;;;26.29;58.18
80502;BME280;70023;51.190;6.808;2023-08-20T10:33:12;102006.78;;;26.87;57.55
80502;BME280;70023;51.190;6.808;2023-08-20T10:38:22;102012.28;;;27.15;57.97
80502;BME280;70023;51.190;6.808;2023-08-20T10:43:51;102008.25;;;27.39;57.72
80502;BME280;70023;51.190;6.808;2023-08-20T10:48:53;102014.72;;;27.57;57.87
80502;BME280;70023;51.190;6.808;2023-08-20T10:59:06;102018.84;;;27.82;58.10
80502;BME280;70023;51.190;6.808;2023-08-20T11:04:08;102008.47;;;27.92;57.96
80502;BME280;70023;51.190;6.808;2023-08-20T11:09:10;102010.69;;;28.04;58.14
80502;BME280;70023;51.190;6.808;2023-08-20T11:19:39;102002.91;;;28.64;57.34
80502;BME280;70023;51.190;6.808;2023-08-20T11:24:42;102005.94;;;28.84;57.55
80502;BME280;70023;51.190;6.808;2023-08-20T11:29:46;102002.59;;;29.05;57.10
80502;BME280;70023;51.190;6.808;2023-08-20T11:34:47;101996.25;;;29.26;56.83
80502;BME280;70023;51.190;6.808;2023-08-20T11:39:51;101992.09;;;29.46;56.64
80502;BME280;70023;51.190;6.808;2023-08-20T11:44:55;101988.53;;;29.63;57.08
80502;BME280;70023;51.190;6.808;2023-08-20T11:50:04;101991.88;;;29.82;56.98
80502;BME280;70023;51.190;6.808;2023-08-20T11:55:11;101989.75;;;30.04;56.18
80502;BME280;70023;51.190;6.808;2023-08-20T12:00:23;101981.13;;;30.23;56.34
80502;BME280;70023;51.190;6.808;2023-08-20T12:05:31;101988.78;;;30.35;56.53
80502;BME280;70023;51.190;6.808;2023-08-20T12:10:33;101984.38;;;30.51;56.61
80502;BME280;70023;51.190;6.808;2023-08-20T12:15:39;101969.41;;;30.60;56.14
80502;BME280;70023;51.190;6.808;2023-08-20T12:21:04;101959.31;;;30.73;56.30
80502;BME280;70023;51.190;6.808;2023-08-20T12:26:11;101967.38;;;30.86;56.15
80502;BME280;70023;51.190;6.808;2023-08-20T12:31:12;101965.91;;;30.98;56.20
80502;BME280;70023;51.190;6.808;2023-08-20T12:36:14;101969.72;;;31.14;56.23
80502;BME280;70023;51.190;6.808;2023-08-20T12:41:15;101964.63;;;31.24;56.43
80502;BME280;70023;51.190;6.808;2023-08-20T12:46:17;101967.13;;;31.38;56.16
80502;BME280;70023;51.190;6.808;2023-08-20T12:51:18;101954.44;;;31.45;56.38
80502;BME280;70023;51.190;6.808;2023-08-20T12:56:19;101956.00;;;31.55;56.25
80502;BME280;70023;51.190;6.808;2023-08-20T13:01:20;101948.72;;;31.71;56.00
80502;BME280;70023;51.190;6.808;2023-08-20T13:06:24;101952.69;;;31.82;56.11
80502;BME280;70023;51.190;6.808;2023-08-20T13:11:26;101947.44;;;31.89;55.99
80502;BME280;70023;51.190;6.808;2023-08-20T13:16:31;101948.50;;;31.97;55.92
80502;BME280;70023;51.190;6.808;2023-08-20T13:21:32;101939.69;;;32.03;56.09
80502;BME280;70023;51.190;6.808;2023-08-20T13:26:33;101947.97;;;32.03;56.08
80502;BME280;70023;51.190;6.808;2023-08-20T13:31:37;101942.59;;;32.07;56.09
80502;BME280;70023;51.190;6.808;2023-08-20T13:36:38;101943.16;;;32.12;56.04
80502;BME280;70023;51.190;6.808;2023-08-20T13:41:40;101941.00;;;32.18;56.27
80502;BME280;70023;51.190;6.808;2023-08-20T13:46:41;101937.81;;;32.28;56.16
80502;BME280;70023;51.190;6.808;2023-08-20T13:51:42;101944.50;;;32.39;56.31
80502;BME280;70023;51.190;6.808;2023-08-20T13:56:43;101942.63;;;32.52;55.86
80502;BME280;70023;51.190;6.808;2023-08-20T14:01:44;101941.50;;;32.65;56.19
80502;BME280;70023;51.190;6.808;2023-08-20T14:06:45;101939.53;;;32.77;55.38
80502;BME280;70023;51.190;6.808;2023-08-20T14:11:47;101945.88;;;32.90;55.88
80502;BME280;70023;51.190;6.808;2023-08-20T14:16:48;101939.53;;;33.02;55.23
80502;BME280;70023;51.190;6.808;2023-08-20T14:21:49;101941.88;;;33.12;55.64
80502;BME280;70023;51.190;6.808;2023-08-20T14:26:51;101942.56;;;33.21;55.51
80502;BME280;70023;51.190;6.808;2023-08-20T14:31:55;101944.84;;;33.31;55.34
80502;BME280;70023;51.190;6.808;2023-08-20T14:36:56;101943.91;;;33.39;55.11
80502;BME280;70023;51.190;6.808;2023-08-20T14:41:57;101933.41;;;33.45;55.17
80502;BME280;70023;51.190;6.808;2023-08-20T14:46:59;101922.88;;;33.50;54.99
80502;BME280;70023;51.190;6.808;2023-08-20T14:52:00;101920.38;;;33.57;54.87
80502;BME280;70023;51.190;6.808;2023-08-20T14:57:01;101922.84;;;33.62;54.75
80502;BME280;70023;51.190;6.808;2023-08-20T15:02:02;101918.69;;;33.68;55.10
80502;BME280;70023;51.190;6.808;2023-08-20T15:07:03;101921.09;;;33.70;55.03
80502;BME280;70023;51.190;6.808;2023-08-20T15:12:05;101914.78;;;33.69;54.91
80502;BME280;70023;51.190;6.808;2023-08-20T15:17:06;101905.91;;;33.64;54.58
80502;BME280;70023;51.190;6.808;2023-08-20T15:22:07;101909.81;;;33.63;55.16
80502;BME280;70023;51.190;6.808;2023-08-20T15:27:08;101907.84;;;33.63;54.83
80502;BME280;70023;51.190;6.808;2023-08-20T15:32:12;101907.03;;;33.63;54.52
80502;BME280;70023;51.190;6.808;2023-08-20T15:37:13;101909.00;;;33.62;54.99
80502;BME280;70023;51.190;6.808;2023-08-20T15:42:18;101912.25;;;33.64;54.54
80502;BME280;70023;51.190;6.808;2023-08-20T15:47:21;101909.81;;;33.63;54.90
80502;BME280;70023;51.190;6.808;2023-08-20T15:52:23;101909.81;;;33.63;54.69
80502;BME280;70023;51.190;6.808;2023-08-20T15:57:26;101903.38;;;33.59;54.44
80502;BME280;70023;51.190;6.808;2023-08-20T16:02:28;101901.28;;;33.56;54.88
80502;BME280;70023;51.190;6.808;2023-08-20T16:07:30;101901.97;;;33.53;54.60
80502;BME280;70023;51.190;6.808;2023-08-20T16:12:31;101903.84;;;33.49;54.82
80502;BME280;70023;51.190;6.808;2023-08-20T16:17:32;101892.19;;;33.43;55.07
80502;BME280;70023;51.190;6.808;2023-08-20T16:22:36;101891.16;;;33.35;55.37
80502;BME280;70023;51.190;6.808;2023-08-20T16:27:41;101898.47;;;33.28;55.33
80502;BME280;70023;51.190;6.808;2023-08-20T16:32:42;101893.75;;;33.16;55.60
80502;BME280;70023;51.190;6.808;2023-08-20T16:37:43;101901.06;;;33.09;55.93
80502;BME280;70023;51.190;6.808;2023-08-20T16:42:47;101901.50;;;32.99;56.04
80502;BME280;70023;51.190;6.808;2023-08-20T16:47:50;101902.75;;;32.89;55.89
80502;BME280;70023;51.190;6.808;2023-08-20T16:52:52;101902.75;;;32.77;55.88
80502;BME280;70023;51.190;6.808;2023-08-20T16:57:53;101905.84;;;32.63;56.16
80502;BME280;70023;51.190;6.808;2023-08-20T17:02:54;101913.19;;;32.47;56.44
80502;BME280;70023;51.190;6.808;2023-08-20T17:07:56;101905.44;;;32.29;56.55
80502;BME280;70023;51.190;6.808;2023-08-20T17:12:57;101903.66;;;32.12;56.70
80502;BME280;70023;51.190;6.808;2023-08-20T17:18:05;101916.00;;;31.94;57.00
80502;BME280;70023;51.190;6.808;2023-08-20T17:23:15;101909.03;;;31.76;57.29
80502;BME280;70023;51.190;6.808;2023-08-20T17:28:16;101916.66;;;31.58;57.49
80502;BME280;70023;51.190;6.808;2023-08-20T17:33:20;101913.53;;;31.39;57.29
80502;BME280;70023;51.190;6.808;2023-08-20T17:38:21;101909.59;;;31.19;57.65
80502;BME280;70023;51.190;6.808;2023-08-20T17:43:41;101913.59;;;31.01;57.52
80502;BME280;70023;51.190;6.808;2023-08-20T17:48:45;101912.38;;;30.81;57.60
80502;BME280;70023;51.190;6.808;2023-08-20T17:53:46;101913.59;;;30.63;57.73
80502;BME280;70023;51.190;6.808;2023-08-20T17:58:47;101915.59;;;30.46;58.40
80502;BME280;70023;51.190;6.808;2023-08-20T18:03:49;101910.44;;;30.27;58.36
80502;BME280;70023;51.190;6.808;2023-08-20T18:08:50;101914.38;;;30.09;58.16
80502;BME280;70023;51.190;6.808;2023-08-20T18:13:51;101909.56;;;29.89;58.91
80502;BME280;70023;51.190;6.808;2023-08-20T18:18:52;101907.06;;;29.70;58.65
80502;BME280;70023;51.190;6.808;2023-08-20T18:23:56;101912.09;;;29.51;58.87
80502;BME280;70023;51.190;6.808;2023-08-20T18:28:57;101914.69;;;29.30;59.38
80502;BME280;70023;51.190;6.808;2023-08-20T18:33:58;101918.47;;;29.12;59.18
80502;BME280;70023;51.190;6.808;2023-08-20T18:39:00;101923.44;;;28.93;59.31
80502;BME280;70023;51.190;6.808;2023-08-20T18:44:04;101918.22;;;28.74;59.53
80502;BME280;70023;51.190;6.808;2023-08-20T18:49:05;101931.66;;;28.54;59.89
80502;BME280;70023;51.190;6.808;2023-08-20T18:54:09;101939.31;;;28.35;60.02
80502;BME280;70023;51.190;6.808;2023-08-20T18:59:10;101941.44;;;28.15;60.29
80502;BME280;70023;51.190;6.808;2023-08-20T19:04:12;101949.03;;;27.96;60.69
80502;BME280;70023;51.190;6.808;2023-08-20T19:09:13;101954.72;;;27.78;60.70
80502;BME280;70023;51.190;6.808;2023-08-20T19:14:16;101972.13;;;27.59;60.96
80502;BME280;70023;51.190;6.808;2023-08-20T19:19:17;101964.03;;;27.41;60.97
80502;BME280;70023;51.190;6.808;2023-08-20T19:24:39;101969.31;;;27.24;61.39
80502;BME280;70023;51.190;6.808;2023-08-20T19:53:35;101994.28;;;26.30;62.14
80502;BME280;70023;51.190;6.808;2023-08-20T19:58:40;101994.47;;;26.20;62.13
80502;BME280;70023;51.190;6.808;2023-08-20T20:03:44;101996.09;;;26.03;62.53
80502;BME280;70023;51.190;6.808;2023-08-20T20:08:45;101998.22;;;25.87;62.75
80502;BME280;70023;51.190;6.808;2023-08-20T20:13:46;102008.28;;;25.73;62.67
80502;BME280;70023;51.190;6.808;2023-08-20T20:18:48;102015.59;;;25.59;63.12
80502;BME280;70023;51.190;6.808;2023-08-20T20:23:49;102015.50;;;25.45;62.90
80502;BME280;70023;51.190;6.808;2023-08-20T20:28:50;102022.47;;;25.33;63.19
80502;BME280;70023;51.190;6.808;2023-08-20T20:33:51;102020.41;;;25.20;63.06
80502;BME280;70023;51.190;6.808;2023-08-20T20:38:52;102018.38;;;25.07;63.09
80502;BME280;70023;51.190;6.808;2023-08-20T20:43:53;102017.97;;;24.94;63.54
80502;BME280;70023;51.190;6.808;2023-08-20T20:48:54;102025.75;;;24.82;63.65
80502;BME280;70023;51.190;6.808;2023-08-20T20:53:56;102018.41;;;24.73;63.61
80502;BME280;70023;51.190;6.808;2023-08-20T20:58:57;102020.72;;;24.61;63.32
80502;BME280;70023;51.190;6.808;2023-08-20T21:03:58;102024.38;;;24.46;63.50
80502;BME280;70023;51.190;6.808;2023-08-20T21:08:59;102024.47;;;24.36;63.61
80502;BME280;70023;51.190;6.808;2023-08-20T21:14:00;102013.63;;;24.26;63.45
80502;BME280;70023;51.190;6.808;2023-08-20T21:19:01;102022.16;;;24.14;63.82
80502;BME280;70023;51.190;6.808;2023-08-20T21:24:02;102027.66;;;24.04;63.81
80502;BME280;70023;51.190;6.808;2023-08-20T21:29:03;102030.44;;;23.94;64.17
80502;BME280;70023;51.190;6.808;2023-08-20T21:34:07;102033.22;;;23.84;64.01
80502;BME280;70023;51.190;6.808;2023-08-20T21:39:08;102038.72;;;23.74;63.85
80502;BME280;70023;51.190;6.808;2023-08-20T21:44:09;102034.13;;;23.64;64.18
80502;BME280;70023;51.190;6.808;2023-08-20T21:49:10;102034.47;;;23.53;64.09
80502;BME280;70023;51.190;6.808;2023-08-20T21:54:11;102037.22;;;23.43;64.33
80502;BME280;70023;51.190;6.808;2023-08-20T21:59:12;102031.78;;;23.33;64.20
80502;BME280;70023;51.190;6.808;2023-08-20T22:04:13;102033.72;;;23.22;64.43
80502;BME280;70023;51.190;6.808;2023-08-20T22:09:15;102030.19;;;23.11;64.40
80502;BME280;70023;51.190;6.808;2023-08-20T22:14:16;102034.31;;;23.04;64.38
80502;BME280;70023;51.190;6.808;2023-08-20T22:19:18;102037.59;;;22.96;64.31
80502;BME280;70023;51.190;6.808;2023-08-20T22:24:22;102039.22;;;22.87;64.35
80502;BME280;70023;51.190;6.808;2023-08-20T22:29:23;102044.72;;;22.77;64.43
80502;BME280;70023;51.190;6.808;2023-08-20T22:34:24;102040.63;;;22.69;64.59
80502;BME280;70023;51.190;6.808;2023-08-20T22:39:25;102046.88;;;22.60;64.44
80502;BME280;70023;51.190;6.808;2023-08-20T22:44:26;102035.69;;;22.51;64.58
80502;BME280;70023;51.190;6.808;2023-08-20T22:49:27;102040.84;;;22.42;64.67
80502;BME280;70023;51.190;6.808;2023-08-20T22:54:28;102029.69;;;22.34;64.72
80502;BME280;70023;51.190;6.808;2023-08-20T22:59:29;102030.47;;;22.24;64.87
80502;BME280;70023;51.190;6.808;2023-08-20T23:04:30;102034.00;;;22.15;64.88
80502;BME280;70023;51.190;6.808;2023-08-20T23:09:31;102035.34;;;22.07;65.01
80502;BME280;70023;51.190;6.808;2023-08-20T23:14:32;102022.81;;;21.96;64.99
80502;BME280;70023;51.190;6.808;2023-08-20T23:19:34;102026.88;;;21.89;64.99
80502;BME280;70023;51.190;6.808;2023-08-20T23:24:36;102020.84;;;21.81;65.17
80502;BME280;70023;51.190;6.808;2023-08-20T23:29:37;102021.34;;;21.73;65.07
80502;BME280;70023;51.190;6.808;2023-08-20T23:34:38;102029.22;;;21.65;65.15
80502;BME280;70023;51.190;6.808;2023-08-20T23:39:39;102033.28;;;21.57;65.22
80502;BME280;70023;51.190;6.808;2023-08-20T23:44:40;102036.47;;;21.49;65.03
80502;BME280;70023;51.190;6.808;2023-08-20T23:49:41;102038.63;;;21.42;65.22
80502;BME280;70023;51.190;6.808;2023-08-20T23:54:42;102044.31;;;21.36;65.24
80502;BME280;70023;51.190;6.808;2023-08-20T23:59:43;102046.44;;;21.29;65.19
